YPPH/PER METAR and TAF weather

Enter ICAO airport designator
Station Type Date Time Source
YPPH METAR 2020/09/27 03:00 UTC NOAA

YPPH 270300Z 31006KT 9999 SCT034 BKN045 18/10 Q1017


Station Type Date Time Source
YPPH Decoded METAR 2020/09/27 03:00 UTC NOAA

Belmont Perth Airport , Australia (YPPH) 31-56S 115-57E 29M
Sep 26, 2020 - 11:00 PM EDT / 2020.09.27 0300 UTC
Wind: from the NW (310 degrees) at 7 MPH (6 KT):0
Visibility: greater than 7 mile(s):0
Sky conditions: mostly cloudy
Temperature: 64 F (18 C)
Dew Point: 50 F (10 C)
Relative Humidity: 59%
Pressure (altimeter): 30.03 in. Hg (1017 hPa)
ob: YPPH 270300Z 31006KT 9999 SCT034 BKN045 18/10 Q1017
cycle: 3

Station Type Date Time Source
YPPH TAF 2020/09/27 00:34 UTC NOAA

TAF YPPH 262308Z 2700/2806 01005KT 9999 SCT040
FM270300 28010KT 9999 SCT040
FM271200 32005KT 9999 BKN030
FM271800 33005KT 9999 -SHRA SCT025 BKN030
FM280100 25010KT 9999 -SHRA SCT030 BKN040 INTER 2718/2806 5000 SHRA SCT010 BKN020

Example: see airport list